createdAt,value
2018-03-07T00:01:30.157Z,58.63
2018-03-07T00:03:58.524Z,59.43
2018-03-07T00:06:26.855Z,59.73
2018-03-07T00:08:55.220Z,60.33
2018-03-07T00:11:23.545Z,59.40
2018-03-07T00:13:51.927Z,54.10
2018-03-07T00:16:20.244Z,55.27
2018-03-07T00:18:48.625Z,60.43
2018-03-07T00:21:16.941Z,55.33
2018-03-07T00:23:45.372Z,63.97
2018-03-07T00:26:13.714Z,55.60
2018-03-07T00:28:42.073Z,56.67
2018-03-07T00:31:11.171Z,58.13
2018-03-07T00:33:39.545Z,60.10
2018-03-07T00:36:08.649Z,52.20
2018-03-07T00:38:37.469Z,54.07
2018-03-07T00:41:05.804Z,58.30
2018-03-07T00:43:34.953Z,53.27
2018-03-07T00:46:03.284Z,53.27
2018-03-07T00:48:31.645Z,49.80
2018-03-07T00:51:00.768Z,52.17
2018-03-07T00:53:29.097Z,48.13
2018-03-07T00:55:57.465Z,46.67
2018-03-07T00:58:25.803Z,48.97
2018-03-07T01:00:54.180Z,46.27
2018-03-07T01:03:22.505Z,50.00
2018-03-07T01:05:50.868Z,46.20
2018-03-07T01:08:19.213Z,42.97
2018-03-07T01:10:47.828Z,44.10
2018-03-07T01:13:16.165Z,40.90
2018-03-07T01:15:44.530Z,44.80
2018-03-07T01:18:12.880Z,43.60
2018-03-07T01:20:41.246Z,38.07
2018-03-07T01:23:09.567Z,42.03
2018-03-07T01:25:38.041Z,42.73
2018-03-07T01:28:06.357Z,40.40
2018-03-07T01:30:34.723Z,39.97
2018-03-07T01:33:03.066Z,40.50
2018-03-07T01:35:31.453Z,36.63
2018-03-07T01:38:00.545Z,36.87
2018-03-07T01:40:29.682Z,36.00
2018-03-07T01:42:58.000Z,35.20
2018-03-07T01:45:26.416Z,33.07
2018-03-07T01:47:54.753Z,32.20
2018-03-07T01:50:23.090Z,30.97
2018-03-07T01:52:51.436Z,28.27
2018-03-07T01:55:19.775Z,32.63
2018-03-07T01:57:48.144Z,32.60
2018-03-07T02:00:16.473Z,32.67
2018-03-07T02:02:45.602Z,30.67
2018-03-07T02:05:13.928Z,30.00
2018-03-07T02:07:42.340Z,29.13
2018-03-07T02:10:10.674Z,30.20
2018-03-07T02:12:39.861Z,27.43
2018-03-07T02:15:08.739Z,29.07
2018-03-07T02:17:37.150Z,30.07
2018-03-07T02:20:06.256Z,26.97
2018-03-07T02:22:34.633Z,28.47
2018-03-07T02:25:02.965Z,29.20
2018-03-07T02:27:31.332Z,33.30
2018-03-07T02:29:59.681Z,28.20
2018-03-07T02:32:28.050Z,26.70
2018-03-07T02:34:56.390Z,33.07
2018-03-07T02:37:24.746Z,31.03
2018-03-07T02:39:53.103Z,31.23
2018-03-07T02:42:21.448Z,31.67
2018-03-07T02:44:50.613Z,31.50
2018-03-07T02:47:18.961Z,32.10
2018-03-07T02:49:47.332Z,32.73
2018-03-07T02:52:15.670Z,34.13
2018-03-07T02:54:44.057Z,36.43
2018-03-07T02:57:12.395Z,33.77
2018-03-07T02:59:40.985Z,35.57
2018-03-07T03:02:09.342Z,31.30
2018-03-07T03:04:37.672Z,31.50
2018-03-07T03:07:06.790Z,36.10
2018-03-07T03:09:35.109Z,38.63
2018-03-07T03:12:03.460Z,38.77
2018-03-07T03:14:31.818Z,41.03
2018-03-07T03:17:00.157Z,39.87
2018-03-07T03:19:29.281Z,38.27
2018-03-07T03:21:57.645Z,39.23
2018-03-07T03:24:26.765Z,38.90
2018-03-07T03:26:55.125Z,37.20
2018-03-07T03:29:23.486Z,37.00
2018-03-07T03:31:52.583Z,36.90
2018-03-07T03:34:20.959Z,34.03
2018-03-07T03:36:50.084Z,36.67
2018-03-07T03:39:18.465Z,34.97
2018-03-07T03:41:46.833Z,35.83
2018-03-07T03:44:15.736Z,37.50
2018-03-07T03:46:44.100Z,41.50
2018-03-07T03:49:12.442Z,39.13
2018-03-07T03:51:40.813Z,43.60
2018-03-07T03:54:09.153Z,44.10
2018-03-07T03:56:37.519Z,44.33
2018-03-07T03:59:05.904Z,40.00
2018-03-07T04:01:34.253Z,41.13
2018-03-07T04:04:02.640Z,42.90
2018-03-07T04:06:30.993Z,46.13
2018-03-07T04:08:59.317Z,43.80
2018-03-07T04:11:27.680Z,50.10
2018-03-07T04:13:56.041Z,53.37
2018-03-07T04:16:24.735Z,49.83
2018-03-07T04:18:53.069Z,50.40
2018-03-07T04:21:21.423Z,49.00
2018-03-07T04:23:49.760Z,51.53
2018-03-07T04:26:18.095Z,49.83
2018-03-07T04:28:46.460Z,50.67
2018-03-07T04:31:14.821Z,54.77
2018-03-07T04:33:43.145Z,53.50
2018-03-07T04:36:11.582Z,51.30
2018-03-07T04:38:39.931Z,51.43
2018-03-07T04:41:08.317Z,46.77
2018-03-07T04:43:36.652Z,50.93
2018-03-07T04:46:05.038Z,47.07
2018-03-07T04:48:33.357Z,50.00
2018-03-07T04:51:01.704Z,49.20
2018-03-07T04:53:30.830Z,51.63
2018-03-07T04:55:59.168Z,50.87
2018-03-07T04:58:28.308Z,48.30
2018-03-07T05:00:56.636Z,52.73
2018-03-07T05:03:24.985Z,48.80
2018-03-07T05:05:53.320Z,47.37
2018-03-07T05:08:21.696Z,47.67
2018-03-07T05:10:50.061Z,47.50
2018-03-07T05:13:19.189Z,44.17
2018-03-07T05:15:47.856Z,47.70
2018-03-07T05:18:16.977Z,45.00
2018-03-07T05:20:45.316Z,46.33
2018-03-07T05:23:14.457Z,45.60
2018-03-07T05:25:42.788Z,44.80
2018-03-07T05:28:11.177Z,45.20
2018-03-07T05:30:39.534Z,43.43
2018-03-07T05:33:07.915Z,46.30
2018-03-07T05:35:36.288Z,43.37
2018-03-07T05:38:05.417Z,48.87
2018-03-07T05:40:33.776Z,43.10
2018-03-07T05:43:02.157Z,42.97
2018-03-07T05:45:30.488Z,49.43
2018-03-07T05:47:59.028Z,43.63
2018-03-07T05:50:27.410Z,44.10
2018-03-07T05:52:55.762Z,45.27
2018-03-07T05:55:24.464Z,47.07
2018-03-07T05:57:52.824Z,47.57
2018-03-07T06:00:21.377Z,43.40
2018-03-07T06:02:49.817Z,43.00
2018-03-07T06:05:18.205Z,47.73
2018-03-07T06:07:46.545Z,45.37
2018-03-07T06:10:15.661Z,46.93
2018-03-07T06:12:44.025Z,43.47
2018-03-07T06:15:12.400Z,42.33
2018-03-07T06:17:40.766Z,45.73
2018-03-07T06:20:09.156Z,48.13
2018-03-07T06:22:37.508Z,44.90
2018-03-07T06:25:06.669Z,45.47
2018-03-07T06:27:34.997Z,45.10
2018-03-07T06:30:03.393Z,40.80
2018-03-07T06:32:31.792Z,41.33
2018-03-07T06:35:00.161Z,40.27
2018-03-07T06:37:28.545Z,43.47
2018-03-07T06:39:56.970Z,46.30
2018-03-07T06:42:26.129Z,41.87
2018-03-07T06:44:54.510Z,45.07
2018-03-07T06:47:22.868Z,42.13
2018-03-07T06:49:51.468Z,45.83
2018-03-07T06:52:20.140Z,44.37
2018-03-07T06:54:48.816Z,45.03
2018-03-07T06:57:17.195Z,46.33
2018-03-07T06:59:45.521Z,44.30
2018-03-07T07:02:14.673Z,43.40
2018-03-07T07:04:43.005Z,43.53
2018-03-07T07:07:11.365Z,44.17
2018-03-07T07:09:39.706Z,45.87
2018-03-07T07:12:08.073Z,41.00
2018-03-07T07:14:36.440Z,38.90
2018-03-07T07:17:05.564Z,41.53
2018-03-07T07:19:33.894Z,41.93
2018-03-07T07:22:03.330Z,39.13
2018-03-07T07:24:31.690Z,42.70
2018-03-07T07:27:00.078Z,41.53
2018-03-07T07:29:29.184Z,44.67
2018-03-07T07:31:58.258Z,46.00
2018-03-07T07:34:27.357Z,43.30
2018-03-07T07:36:56.493Z,41.70
2018-03-07T07:39:24.852Z,40.17
2018-03-07T07:41:53.237Z,39.60
2018-03-07T07:44:21.571Z,44.80
2018-03-07T07:46:50.705Z,42.50
2018-03-07T07:49:19.045Z,42.40
2018-03-07T07:51:48.230Z,36.70
2018-03-07T07:54:17.345Z,41.43
2018-03-07T07:56:46.433Z,47.10
2018-03-07T07:59:15.572Z,40.33
2018-03-07T08:01:43.933Z,48.00
2018-03-07T08:04:12.318Z,43.70
2018-03-07T08:06:40.648Z,49.03
2018-03-07T08:09:09.021Z,44.33
2018-03-07T08:11:38.125Z,49.20
2018-03-07T08:14:06.495Z,51.07
2018-03-07T08:16:34.834Z,51.23
2018-03-07T08:19:03.189Z,51.50
2018-03-07T08:21:31.537Z,47.77
2018-03-07T08:23:59.904Z,47.93
2018-03-07T08:26:28.267Z,50.13
2018-03-07T08:28:56.620Z,51.43
2018-03-07T08:31:24.965Z,49.70
2018-03-07T08:33:54.094Z,47.30
2018-03-07T08:36:22.420Z,49.23
2018-03-07T08:38:50.781Z,47.27
2018-03-07T08:41:19.117Z,46.80
2018-03-07T08:43:47.485Z,48.50
2018-03-07T08:46:16.571Z,47.83
2018-03-07T08:48:44.956Z,48.93
2018-03-07T08:51:13.326Z,46.27
2018-03-07T08:53:41.841Z,46.93
2018-03-07T08:56:10.188Z,48.90
2018-03-07T08:58:38.528Z,48.47
2018-03-07T09:01:06.897Z,47.40
2018-03-07T09:03:35.224Z,44.40
2018-03-07T09:06:03.592Z,42.70
2018-03-07T09:08:32.700Z,49.77
2018-03-07T09:11:01.066Z,43.20
2018-03-07T09:13:30.161Z,45.63
2018-03-07T09:15:58.541Z,41.67
2018-03-07T09:18:27.637Z,42.70
2018-03-07T09:20:56.330Z,42.27
2018-03-07T09:23:25.418Z,45.57
2018-03-07T09:25:53.784Z,45.60
2018-03-07T09:28:22.881Z,45.60
2018-03-07T09:30:52.018Z,49.43
2018-03-07T09:33:21.170Z,48.30
2018-03-07T09:35:50.305Z,50.37
2018-03-07T09:38:18.677Z,45.07
2018-03-07T09:40:47.060Z,48.73
2018-03-07T09:43:15.388Z,49.10
2018-03-07T09:45:44.529Z,53.17
2018-03-07T09:48:12.880Z,52.77
2018-03-07T09:50:41.248Z,49.03
2018-03-07T09:53:10.349Z,44.87
2018-03-07T09:55:39.512Z,45.33
2018-03-07T09:58:07.845Z,51.33
2018-03-07T10:00:36.175Z,51.60
2018-03-07T10:03:05.321Z,54.23
2018-03-07T10:05:33.662Z,54.50
2018-03-07T10:08:02.802Z,51.57
2018-03-07T10:10:31.165Z,48.83
2018-03-07T10:12:59.529Z,47.67
2018-03-07T10:15:28.617Z,47.83
2018-03-07T10:17:56.969Z,47.60
2018-03-07T10:20:25.303Z,47.13
2018-03-07T10:22:53.666Z,45.50
2018-03-07T10:25:22.000Z,49.23
2018-03-07T10:27:50.482Z,44.67
2018-03-07T10:30:18.818Z,47.20
2018-03-07T10:32:47.164Z,51.10
2018-03-07T10:35:15.514Z,52.57
2018-03-07T10:37:43.949Z,51.93
2018-03-07T10:40:12.428Z,50.93
2018-03-07T10:42:40.792Z,53.97
2018-03-07T10:45:09.136Z,49.23
2018-03-07T10:47:37.725Z,50.87
2018-03-07T10:50:06.061Z,51.20
2018-03-07T10:52:34.445Z,47.67
2018-03-07T10:55:02.795Z,52.70
2018-03-07T10:57:31.208Z,52.27
2018-03-07T10:59:59.836Z,51.60
2018-03-07T11:02:28.185Z,52.57
2018-03-07T11:04:56.544Z,58.77
2018-03-07T11:07:24.905Z,55.17
2018-03-07T11:09:53.671Z,55.50
2018-03-07T11:12:22.169Z,50.40
2018-03-07T11:14:50.537Z,52.73
2018-03-07T11:17:18.877Z,53.00
2018-03-07T11:19:48.140Z,49.37
2018-03-07T11:22:16.470Z,54.03
2018-03-07T11:24:44.839Z,59.70
2018-03-07T11:27:14.032Z,55.97
2018-03-07T11:29:43.166Z,50.23
2018-03-07T11:32:11.498Z,52.23
2018-03-07T11:34:39.849Z,60.63
2018-03-07T11:37:08.198Z,57.20
2018-03-07T11:39:36.574Z,54.03
2018-03-07T11:42:04.911Z,52.70
2018-03-07T11:44:34.043Z,56.13
2018-03-07T11:47:02.385Z,53.27
2018-03-07T11:49:31.526Z,50.00
2018-03-07T11:51:59.852Z,51.63
2018-03-07T11:54:29.004Z,54.97
2018-03-07T11:56:57.368Z,53.43
2018-03-07T11:59:25.952Z,55.27
2018-03-07T12:01:54.301Z,50.53
2018-03-07T12:04:22.656Z,53.77
2018-03-07T12:06:51.068Z,51.00
2018-03-07T12:09:19.395Z,55.50
2018-03-07T12:11:47.757Z,54.57
2018-03-07T12:14:16.697Z,57.17
2018-03-07T12:16:45.088Z,54.87
2018-03-07T12:19:13.462Z,56.53
2018-03-07T12:21:43.102Z,59.90
2018-03-07T12:24:11.447Z,61.17
2018-03-07T12:26:40.575Z,60.73
2018-03-07T12:29:08.934Z,62.47
2018-03-07T12:31:37.293Z,64.20
2018-03-07T12:34:06.406Z,63.60
2018-03-07T12:36:34.774Z,62.07
2018-03-07T12:39:03.885Z,61.13
2018-03-07T12:41:32.299Z,64.27
2018-03-07T12:44:00.663Z,65.43
2018-03-07T12:46:29.068Z,63.30
2018-03-07T12:48:57.401Z,70.20
2018-03-07T12:51:25.779Z,63.87
2018-03-07T12:53:54.109Z,64.63
2018-03-07T12:56:22.490Z,65.60
2018-03-07T12:58:50.820Z,67.20
2018-03-07T13:01:19.273Z,67.53
2018-03-07T13:03:47.634Z,64.07
2018-03-07T13:06:16.725Z,64.00
2018-03-07T13:08:45.882Z,62.30
2018-03-07T13:11:14.206Z,59.60
2018-03-07T13:13:42.614Z,62.30
2018-03-07T13:16:10.981Z,65.60
2018-03-07T13:18:39.352Z,64.43
2018-03-07T13:21:07.711Z,62.87
2018-03-07T13:23:36.859Z,62.63
2018-03-07T13:26:05.181Z,63.17
2018-03-07T13:28:33.530Z,63.03
2018-03-07T13:31:01.885Z,66.00
2018-03-07T13:33:30.261Z,60.90
2018-03-07T13:35:58.613Z,63.93
2018-03-07T13:38:26.982Z,62.80
2018-03-07T13:40:56.081Z,68.10
2018-03-07T13:43:25.212Z,62.93
2018-03-07T13:45:53.556Z,63.90
2018-03-07T13:48:22.695Z,62.67
2018-03-07T13:50:51.030Z,71.13
2018-03-07T13:53:19.406Z,62.60
2018-03-07T13:55:48.502Z,62.23
2018-03-07T13:58:17.004Z,66.20
2018-03-07T14:00:45.948Z,64.47
2018-03-07T14:03:14.306Z,61.33
2018-03-07T14:05:42.634Z,65.60
2018-03-07T14:08:11.003Z,67.30
2018-03-07T14:10:40.268Z,69.33
2018-03-07T14:13:09.384Z,64.03
2018-03-07T14:15:37.782Z,66.03
2018-03-07T14:18:06.138Z,62.23
2018-03-07T14:20:35.281Z,67.23
2018-03-07T14:23:03.617Z,66.80
2018-03-07T14:25:32.756Z,66.07
2018-03-07T14:28:01.099Z,69.10
2018-03-07T14:30:30.226Z,64.33
2018-03-07T14:32:58.601Z,64.50
2018-03-07T14:35:26.979Z,60.83
2018-03-07T14:37:55.326Z,65.27
2018-03-07T14:40:24.453Z,65.53
2018-03-07T14:42:52.788Z,64.40
2018-03-07T14:45:21.183Z,70.73
2018-03-07T14:47:50.281Z,66.50
2018-03-07T14:50:19.851Z,68.50
2018-03-07T14:52:48.182Z,67.80
2018-03-07T14:55:16.557Z,67.77
2018-03-07T14:57:44.893Z,70.77
2018-03-07T15:00:14.043Z,65.33
2018-03-07T15:02:42.389Z,69.07
2018-03-07T15:05:11.521Z,71.10
2018-03-07T15:07:39.857Z,71.00
2018-03-07T15:10:09.005Z,72.53
2018-03-07T15:12:37.654Z,68.30
2018-03-07T15:15:05.988Z,64.53
2018-03-07T15:17:35.201Z,66.30
2018-03-07T15:20:03.533Z,69.80
2018-03-07T15:22:32.561Z,63.07
2018-03-07T15:25:01.672Z,66.20
2018-03-07T15:27:30.808Z,61.17
2018-03-07T15:29:59.178Z,60.50
2018-03-07T15:32:27.550Z,58.20
2018-03-07T15:34:55.879Z,65.23
2018-03-07T15:37:25.035Z,65.60
2018-03-07T15:39:53.404Z,70.90
2018-03-07T15:42:21.769Z,77.90
2018-03-07T15:44:50.873Z,109.33
2018-03-07T15:47:19.245Z,72.17
2018-03-07T15:49:47.580Z,71.27
2018-03-07T15:52:15.945Z,72.07
2018-03-07T15:54:44.272Z,78.27
2018-03-07T15:57:12.661Z,73.60
2018-03-07T15:59:41.018Z,71.17
2018-03-07T16:02:10.149Z,76.23
2018-03-07T16:04:38.486Z,75.20
2018-03-07T16:07:07.621Z,76.57
2018-03-07T16:09:35.961Z,69.90
2018-03-07T16:12:05.468Z,67.70
2018-03-07T16:14:34.563Z,67.10
2018-03-07T16:17:03.205Z,67.97
2018-03-07T16:19:31.569Z,64.67
2018-03-07T16:21:59.913Z,68.67
2018-03-07T16:24:28.293Z,67.37
2018-03-07T16:26:56.647Z,67.43
2018-03-07T16:29:25.799Z,67.50
2018-03-07T16:31:54.149Z,66.20
2018-03-07T16:34:22.513Z,66.33
2018-03-07T16:36:50.849Z,66.57
2018-03-07T16:39:19.271Z,65.80
2018-03-07T16:41:47.622Z,66.17
2018-03-07T16:44:16.778Z,72.23
2018-03-07T16:46:45.111Z,71.80
2018-03-07T16:49:13.530Z,74.30
2018-03-07T16:51:41.876Z,65.83
2018-03-07T16:54:10.241Z,67.03
2018-03-07T16:56:39.352Z,69.40
2018-03-07T16:59:08.491Z,71.20
2018-03-07T17:01:36.864Z,70.50
2018-03-07T17:04:05.224Z,71.27
2018-03-07T17:06:33.566Z,76.30
2018-03-07T17:09:01.921Z,69.00
2018-03-07T17:11:30.555Z,68.37
2018-03-07T17:13:58.940Z,69.43
2018-03-07T17:16:27.273Z,71.93
2018-03-07T17:18:56.569Z,74.70
2018-03-07T17:21:24.984Z,79.33
2018-03-07T17:23:53.321Z,78.27
2018-03-07T17:26:21.697Z,76.47
2018-03-07T17:28:50.829Z,74.10
2018-03-07T17:31:19.246Z,78.30
2018-03-07T17:33:47.585Z,77.87
2018-03-07T17:36:15.974Z,74.00
2018-03-07T17:38:44.324Z,79.20
2018-03-07T17:41:13.466Z,80.50
2018-03-07T17:43:41.797Z,80.83
2018-03-07T17:46:10.213Z,86.20
2018-03-07T17:48:38.571Z,75.27
2018-03-07T17:51:06.944Z,75.90
2018-03-07T17:53:35.276Z,75.70
2018-03-07T17:56:03.718Z,76.30
2018-03-07T17:58:32.021Z,78.27
2018-03-07T18:01:00.376Z,78.60
2018-03-07T18:03:28.705Z,76.07
2018-03-07T18:05:57.087Z,77.43
2018-03-07T18:08:25.428Z,77.40
2018-03-07T18:10:53.801Z,78.00
2018-03-07T18:13:22.136Z,86.93
2018-03-07T18:15:50.516Z,82.13
2018-03-07T18:18:19.614Z,82.17
2018-03-07T18:20:48.737Z,80.63
2018-03-07T18:23:17.075Z,80.43
2018-03-07T18:25:45.435Z,79.30
2018-03-07T18:28:13.821Z,76.00
2018-03-07T18:30:42.939Z,84.83
2018-03-07T18:33:11.320Z,76.00
2018-03-07T18:35:40.615Z,81.90
2018-03-07T18:38:09.913Z,80.83
2018-03-07T18:40:38.616Z,79.67
2018-03-07T18:43:07.001Z,79.73
2018-03-07T18:45:35.345Z,82.87
2018-03-07T18:48:04.481Z,85.40
2018-03-07T18:50:32.823Z,81.97
2018-03-07T18:53:01.981Z,84.90
2018-03-07T18:55:30.348Z,85.47
2018-03-07T18:57:58.729Z,82.13
2018-03-07T19:00:27.068Z,84.73
2018-03-07T19:02:56.188Z,84.13
2018-03-07T19:05:24.548Z,76.27
2018-03-07T19:07:53.251Z,83.40
2018-03-07T19:10:21.588Z,80.27
2018-03-07T19:12:49.985Z,82.63
2018-03-07T19:15:18.344Z,85.10
2018-03-07T19:17:46.769Z,84.83
2018-03-07T19:20:20.227Z,85.60
2018-03-07T19:22:49.477Z,78.27
2018-03-07T19:25:17.829Z,85.33
2018-03-07T19:27:46.183Z,88.87
2018-03-07T19:30:14.584Z,85.80
2018-03-07T19:32:42.970Z,86.80
2018-03-07T19:35:11.525Z,80.53
2018-03-07T19:37:39.876Z,82.97
2018-03-07T19:40:09.150Z,86.20
2018-03-07T19:42:37.502Z,81.73
2018-03-07T19:45:05.885Z,84.17
2018-03-07T19:47:34.225Z,89.90
2018-03-07T19:50:02.653Z,85.60
2018-03-07T19:52:31.007Z,86.47
2018-03-07T19:54:59.498Z,89.30
2018-03-07T19:57:27.845Z,85.20
2018-03-07T19:59:56.969Z,83.53
2018-03-07T20:02:25.341Z,91.17
2018-03-07T20:04:53.729Z,89.60
2018-03-07T20:07:22.070Z,86.53
2018-03-07T20:09:51.305Z,86.03
2018-03-07T20:12:19.695Z,92.23
2018-03-07T20:14:48.049Z,86.13
2018-03-07T20:17:16.472Z,88.30
2018-03-07T20:19:45.624Z,90.23
2018-03-07T20:22:13.965Z,85.90
2018-03-07T20:24:43.138Z,86.30
2018-03-07T20:27:11.473Z,83.13
2018-03-07T20:29:39.833Z,84.77
2018-03-07T20:32:08.232Z,83.50
2018-03-07T20:34:36.578Z,83.00
2018-03-07T20:37:05.721Z,83.20
2018-03-07T20:39:34.084Z,81.67
2018-03-07T20:42:02.468Z,77.50
2018-03-07T20:44:30.813Z,83.20
2018-03-07T20:46:59.232Z,83.20
2018-03-07T20:49:27.576Z,78.87
2018-03-07T20:51:55.944Z,79.10
2018-03-07T20:54:24.352Z,82.07
2018-03-07T20:56:52.737Z,79.40
2018-03-07T20:59:21.419Z,83.83
2018-03-07T21:01:49.809Z,74.87
2018-03-07T21:04:18.169Z,79.50
2018-03-07T21:06:46.563Z,76.80
2018-03-07T21:09:14.894Z,73.40
2018-03-07T21:11:44.032Z,74.27
2018-03-07T21:14:12.419Z,73.30
2018-03-07T21:16:40.820Z,82.13
2018-03-07T21:19:09.141Z,81.60
2018-03-07T21:21:37.530Z,75.57
2018-03-07T21:24:05.924Z,79.47
2018-03-07T21:26:34.303Z,75.47
2018-03-07T21:29:02.682Z,77.07
2018-03-07T21:31:31.025Z,77.10
2018-03-07T21:33:59.407Z,74.10
2018-03-07T21:36:27.749Z,79.60
2018-03-07T21:38:56.934Z,74.33
2018-03-07T21:41:25.274Z,73.10
2018-03-07T21:43:53.646Z,71.50
2018-03-07T21:46:21.981Z,75.17
2018-03-07T21:48:51.144Z,82.23
2018-03-07T21:51:19.525Z,85.97
2018-03-07T21:53:47.897Z,81.40
2018-03-07T21:56:16.229Z,81.80
2018-03-07T21:58:44.613Z,81.20
2018-03-07T22:01:12.965Z,86.33
2018-03-07T22:03:41.344Z,79.97
2018-03-07T22:06:09.676Z,80.13
2018-03-07T22:08:38.064Z,84.73
2018-03-07T22:11:06.413Z,77.97
2018-03-07T22:13:34.776Z,80.57
2018-03-07T22:16:03.884Z,79.53
2018-03-07T22:18:32.312Z,79.23
2018-03-07T22:21:00.650Z,83.73
2018-03-07T22:23:29.026Z,79.03
2018-03-07T22:25:57.375Z,83.23
2018-03-07T22:28:26.516Z,84.40
2018-03-07T22:30:54.893Z,83.30
2018-03-07T22:33:23.221Z,89.63
2018-03-07T22:35:51.608Z,88.50
2018-03-07T22:38:20.713Z,88.07
2018-03-07T22:40:49.094Z,93.07
2018-03-07T22:43:17.429Z,92.40
2018-03-07T22:45:45.803Z,86.40
2018-03-07T22:48:14.133Z,89.60
2018-03-07T22:50:42.509Z,86.67
2018-03-07T22:53:10.864Z,92.60
2018-03-07T22:55:40.012Z,81.53
2018-03-07T22:58:08.377Z,83.40
2018-03-07T23:00:42.476Z,81.53
2018-03-07T23:03:10.821Z,83.80
2018-03-07T23:05:39.201Z,90.23
2018-03-07T23:08:07.565Z,91.77
2018-03-07T23:10:36.720Z,85.77
2018-03-07T23:13:05.081Z,85.10
2018-03-07T23:15:33.463Z,83.07
2018-03-07T23:18:01.794Z,83.40
2018-03-07T23:20:30.161Z,85.90
2018-03-07T23:22:59.298Z,92.13
2018-03-07T23:25:27.677Z,89.40
2018-03-07T23:27:56.774Z,82.80
2018-03-07T23:30:25.163Z,86.07
2018-03-07T23:32:54.253Z,94.60
2018-03-07T23:35:22.581Z,82.83
2018-03-07T23:37:50.951Z,82.90
2018-03-07T23:40:19.289Z,84.67
2018-03-07T23:42:47.661Z,82.00
2018-03-07T23:45:16.008Z,80.07
2018-03-07T23:47:44.368Z,78.43
2018-03-07T23:50:12.780Z,83.40
2018-03-07T23:52:41.916Z,78.23
2018-03-07T23:55:10.256Z,82.53
2018-03-07T23:57:38.636Z,78.27
